Time;durP1;ratioP1;P1;durP2;ratioP2;P2;SDS_P1;SDS_P2;PMS_P1;PMS_P2;Temp;Humidity;BMP_temperature;BMP_pressure;BME280_temperature;BME280_humidity;BME280_pressure;Samples;Min_cycle;Max_cycle;Signal;HPM_P1;HPM_P2
2022/05/23 00:02:02;;;;;;;;;;;;;;;15.26;100.00;100862.09;2613300;31;19982;-57
2022/05/23 00:04:30;;;;;;;;;;;;;;;15.22;100.00;100852.59;2612739;36;20487;-58
2022/05/23 00:06:58;;;;;;;;;;;;;;;15.23;100.00;100838.03;2613347;36;19951;-58
2022/05/23 00:12:09;;;;;;;;;;;;;;;15.17;100.00;100823.28;2613626;36;19985;-61
2022/05/23 00:14:37;;;;;;;;;;;;;;;15.25;100.00;100814.31;2612756;36;19947;-61
2022/05/23 00:17:05;;;;;;;;;;;;;;;15.28;100.00;100808.53;2612828;36;19946;-58
2022/05/23 00:19:33;;;;;;;;;;;;;;;15.28;100.00;100792.28;2613588;31;19973;-56
2022/05/23 00:22:01;;;;;;;;;;;;;;;15.24;100.00;100797.19;2613452;36;19951;-62
2022/05/23 00:24:29;;;;;;;;;;;;;;;15.15;100.00;100800.94;2613387;36;19968;-58
2022/05/23 00:26:58;;;;;;;;;;;;;;;15.15;100.00;100806.34;2613042;36;19955;-60
2022/05/23 00:29:28;;;;;;;;;;;;;;;15.12;100.00;100798.56;2611769;36;19950;-59
2022/05/23 00:37:27;;;;;;;;;;;;;;;15.04;100.00;100758.72;2612070;36;19954;-58
2022/05/23 00:39:55;;;;;;;;;;;;;;;15.07;100.00;100755.69;2612613;36;20577;-58
2022/05/23 00:45:10;;;;;;;;;;;;;;;15.05;100.00;100754.16;2612833;31;19993;-59
2022/05/23 00:47:38;;;;;;;;;;;;;;;15.17;100.00;100746.53;2613109;36;20066;-59
2022/05/23 00:50:07;;;;;;;;;;;;;;;15.19;100.00;100744.50;2613089;31;20026;-60
2022/05/23 00:52:37;;;;;;;;;;;;;;;15.18;100.00;100742.78;2611821;36;20085;-58
2022/05/23 00:55:08;;;;;;;;;;;;;;;15.07;100.00;100731.31;2612541;36;19973;-58
2022/05/23 00:57:38;;;;;;;;;;;;;;;15.06;100.00;100734.16;2612075;36;20439;-58
2022/05/23 01:00:08;;;;;;;;;;;;;;;15.05;100.00;100722.47;2612935;36;19950;-58
2022/05/23 01:02:39;;;;;;;;;;;;;;;15.00;100.00;100719.44;2612468;36;19958;-61
2022/05/23 01:05:08;;;;;;;;;;;;;;;14.93;100.00;100717.53;2613138;36;20448;-58
2022/05/23 01:07:36;;;;;;;;;;;;;;;14.93;100.00;100721.13;2613222;36;20042;-57
2022/05/23 01:10:09;;;;;;;;;;;;;;;14.94;100.00;100713.81;2613970;36;19968;-58
2022/05/23 01:12:38;;;;;;;;;;;;;;;14.94;100.00;100703.81;2611806;36;19977;-60
2022/05/23 01:15:06;;;;;;;;;;;;;;;14.89;100.00;100703.50;2612144;36;20042;-58
2022/05/23 01:17:34;;;;;;;;;;;;;;;14.89;100.00;100700.78;2613435;36;20542;-58
2022/05/23 01:20:07;;;;;;;;;;;;;;;14.92;100.00;100694.19;2613318;36;20363;-58
2022/05/23 01:22:38;;;;;;;;;;;;;;;14.83;100.00;100702.31;2612750;36;19962;-58
2022/05/23 01:27:41;;;;;;;;;;;;;;;14.81;100.00;100698.06;2616202;36;19970;-56
2022/05/23 01:30:10;;;;;;;;;;;;;;;14.58;100.00;100693.25;2612235;36;19947;-56
2022/05/23 01:32:38;;;;;;;;;;;;;;;14.60;100.00;100685.81;2612950;36;19951;-57
2022/05/23 01:35:06;;;;;;;;;;;;;;;14.67;100.00;100686.88;2612505;36;19989;-58
2022/05/23 01:37:34;;;;;;;;;;;;;;;14.66;100.00;100685.19;2606793;36;20026;-58
2022/05/23 01:40:03;;;;;;;;;;;;;;;14.65;100.00;100686.19;2612759;36;20054;-57
2022/05/23 01:42:31;;;;;;;;;;;;;;;14.51;100.00;100692.22;2614726;31;20086;-61
2022/05/23 01:45:01;;;;;;;;;;;;;;;14.51;100.00;100693.06;2612045;36;20042;-56
2022/05/23 01:47:29;;;;;;;;;;;;;;;14.48;100.00;100697.97;2612703;36;19981;-60
2022/05/23 01:52:53;;;;;;;;;;;;;;;14.35;100.00;100690.31;2612346;36;20428;-58
2022/05/23 01:55:24;;;;;;;;;;;;;;;14.36;100.00;100687.44;2613195;39;20388;-56
2022/05/23 01:57:53;;;;;;;;;;;;;;;14.40;100.00;100687.97;2612658;36;19954;-59
2022/05/23 02:03:04;;;;;;;;;;;;;;;14.42;100.00;100682.41;2612972;36;19951;-58
2022/05/23 02:08:04;;;;;;;;;;;;;;;14.42;100.00;100685.94;2612877;36;19977;-59
2022/05/23 02:10:33;;;;;;;;;;;;;;;14.27;100.00;100680.34;2611393;36;20446;-60
2022/05/23 02:13:02;;;;;;;;;;;;;;;14.19;100.00;100677.59;2613894;36;20490;-58
2022/05/23 02:15:34;;;;;;;;;;;;;;;14.20;100.00;100682.00;2610252;36;19951;-54
2022/05/23 02:18:05;;;;;;;;;;;;;;;14.16;100.00;100683.31;2613736;47;19985;-57
2022/05/23 02:23:08;;;;;;;;;;;;;;;14.19;100.00;100673.03;2615935;36;19953;-57
2022/05/23 02:25:37;;;;;;;;;;;;;;;14.25;100.00;100676.09;2612757;36;20366;-57
2022/05/23 02:30:34;;;;;;;;;;;;;;;14.17;100.00;100679.63;2612640;54;19939;-58
2022/05/23 02:33:02;;;;;;;;;;;;;;;14.25;100.00;100665.25;2613113;36;20070;-57
2022/05/23 02:35:30;;;;;;;;;;;;;;;14.20;100.00;100669.28;2613114;36;20050;-60
2022/05/23 02:37:58;;;;;;;;;;;;;;;14.19;100.00;100669.47;2612055;36;20125;-58
2022/05/23 02:40:27;;;;;;;;;;;;;;;14.18;100.00;100665.91;2613677;36;20049;-58
2022/05/23 02:42:55;;;;;;;;;;;;;;;14.06;100.00;100672.66;2613159;36;19954;-57
2022/05/23 02:45:23;;;;;;;;;;;;;;;14.02;100.00;100666.72;2611907;36;20066;-57
2022/05/23 02:47:53;;;;;;;;;;;;;;;13.97;100.00;100666.38;2612675;36;20022;-59
2022/05/23 02:53:02;;;;;;;;;;;;;;;14.01;100.00;100656.88;2611936;54;21339;-56
2022/05/23 02:55:30;;;;;;;;;;;;;;;13.98;100.00;100653.66;2612705;36;20539;-55
2022/05/23 02:58:08;;;;;;;;;;;;;;;14.02;100.00;100645.06;2612573;36;20062;-58
2022/05/23 03:00:36;;;;;;;;;;;;;;;13.93;100.00;100651.47;2614779;36;20030;-57
2022/05/23 03:03:06;;;;;;;;;;;;;;;13.92;100.00;100638.94;2611882;36;20047;-60
2022/05/23 03:10:30;;;;;;;;;;;;;;;13.88;100.00;100631.31;2617785;36;20453;-57
2022/05/23 03:18:13;;;;;;;;;;;;;;;13.86;100.00;100611.72;2616582;36;20447;-56
2022/05/23 03:20:41;;;;;;;;;;;;;;;13.79;100.00;100611.50;2607333;36;22062;-58
2022/05/23 03:28:31;;;;;;;;;;;;;;;13.83;100.00;100597.47;2607048;36;19950;-58
2022/05/23 03:30:59;;;;;;;;;;;;;;;13.84;100.00;100598.34;2610591;36;19954;-58
2022/05/23 03:33:29;;;;;;;;;;;;;;;13.77;100.00;100586.47;2611380;36;19950;-60
2022/05/23 03:41:07;;;;;;;;;;;;;;;13.92;100.00;100568.59;2615881;36;19950;-57
2022/05/23 03:43:35;;;;;;;;;;;;;;;13.95;100.00;100552.03;2612895;36;20420;-56
2022/05/23 03:46:07;;;;;;;;;;;;;;;13.86;100.00;100544.91;2612986;36;20026;-57
2022/05/23 03:48:37;;;;;;;;;;;;;;;13.92;100.00;100546.94;2612843;36;20042;-57
2022/05/23 03:56:19;;;;;;;;;;;;;;;14.05;100.00;100518.56;2613753;54;19968;-58
2022/05/23 03:58:47;;;;;;;;;;;;;;;14.17;100.00;100519.94;2612867;36;19958;-57
2022/05/23 04:01:18;;;;;;;;;;;;;;;14.20;100.00;100512.31;2612105;36;20086;-59
2022/05/23 04:03:48;;;;;;;;;;;;;;;14.09;100.00;100515.38;2611432;31;20038;-57
2022/05/23 04:06:17;;;;;;;;;;;;;;;14.07;100.00;100509.25;2613555;36;20062;-63
2022/05/23 04:13:51;;;;;;;;;;;;;;;14.24;100.00;100502.00;2612966;54;19946;-58
2022/05/23 04:21:21;;;;;;;;;;;;;;;14.37;100.00;100496.91;2612730;36;20073;-59
2022/05/23 04:23:49;;;;;;;;;;;;;;;14.31;100.00;100494.03;2614333;36;19942;-58
2022/05/23 04:26:17;;;;;;;;;;;;;;;14.25;100.00;100487.47;2614992;36;19958;-57
2022/05/23 04:28:48;;;;;;;;;;;;;;;14.45;100.00;100484.41;2614846;36;22060;-60
2022/05/23 04:41:11;;;;;;;;;;;;;;;14.34;100.00;100467.47;2612994;54;20609;-58
2022/05/23 04:43:39;;;;;;;;;;;;;;;14.47;100.00;100460.69;2612654;36;20550;-65
2022/05/23 04:46:07;;;;;;;;;;;;;;;14.47;100.00;100452.56;2612370;36;20074;-57
2022/05/23 04:53:26;;;;;;;;;;;;;;;14.69;100.00;100456.44;2612376;46;19984;-56
2022/05/23 04:55:54;;;;;;;;;;;;;;;14.81;100.00;100448.78;2612981;36;20465;-65
2022/05/23 04:58:25;;;;;;;;;;;;;;;14.79;100.00;100458.97;2612528;36;19966;-66
2022/05/23 05:00:53;;;;;;;;;;;;;;;14.86;100.00;100451.84;2610275;36;20034;-58
2022/05/23 05:03:21;;;;;;;;;;;;;;;14.66;100.00;100452.25;2610632;36;19977;-56
2022/05/23 05:05:49;;;;;;;;;;;;;;;14.73;100.00;100448.84;2612652;31;20010;-59
2022/05/23 05:08:17;;;;;;;;;;;;;;;14.74;100.00;100442.38;2611553;36;20049;-66
2022/05/23 05:10:45;;;;;;;;;;;;;;;14.79;100.00;100446.25;2612878;36;19947;-64
2022/05/23 05:13:13;;;;;;;;;;;;;;;14.80;100.00;100444.41;2612814;36;19950;-59
2022/05/23 05:15:45;;;;;;;;;;;;;;;14.73;100.00;100429.88;2611642;36;20062;-59
2022/05/23 05:18:13;;;;;;;;;;;;;;;14.70;100.00;100431.91;2613003;36;19981;-55
2022/05/23 05:20:41;;;;;;;;;;;;;;;14.73;100.00;100424.47;2612473;31;20029;-63
2022/05/23 05:23:09;;;;;;;;;;;;;;;14.92;100.00;100418.63;2610886;31;20061;-67
2022/05/23 05:25:37;;;;;;;;;;;;;;;15.09;100.00;100418.53;2611448;36;20038;-57
2022/05/23 05:33:03;;;;;;;;;;;;;;;15.68;100.00;100415.31;2612082;54;19954;-58
2022/05/23 05:35:34;;;;;;;;;;;;;;;15.89;100.00;100410.09;2610112;36;20057;-65
2022/05/23 05:45:37;;;;;;;;;;;;;;;15.79;100.00;100408.69;2610859;36;21563;-64
2022/05/23 05:48:08;;;;;;;;;;;;;;;15.74;100.00;100406.47;2612431;36;19954;-60
2022/05/23 05:58:07;;;;;;;;;;;;;;;16.49;100.00;100396.66;2612572;54;20014;-59
2022/05/23 06:00:35;;;;;;;;;;;;;;;16.25;100.00;100398.59;2609307;36;20030;-57
2022/05/23 06:03:03;;;;;;;;;;;;;;;16.46;100.00;100392.44;2604400;36;19962;-57
2022/05/23 06:11:23;;;;;;;;;;;;;;;16.63;100.00;100394.97;2612723;31;19958;-61
2022/05/23 06:13:35;;;;;;;;;;;;;;;17.32;100.00;100369.31;2612947;36;20355;-64
2022/05/23 06:16:03;;;;;;;;;;;;;;;17.60;100.00;100363.09;2609497;36;19974;-68
2022/05/23 06:18:31;;;;;;;;;;;;;;;17.81;100.00;100370.41;2613671;36;20090;-58
2022/05/23 06:21:03;;;;;;;;;;;;;;;17.91;100.00;100362.78;2612696;36;19950;-60
2022/05/23 06:23:34;;;;;;;;;;;;;;;17.92;100.00;100356.31;2611658;54;19997;-62
2022/05/23 06:31:21;;;;;;;;;;;;;;;17.46;100.00;100354.81;2618313;36;19977;-63
2022/05/23 06:36:36;;;;;;;;;;;;;;;18.05;100.00;100352.84;2613935;36;19981;-59
2022/05/23 06:39:04;;;;;;;;;;;;;;;17.72;100.00;100347.09;2612293;31;19950;-62
2022/05/23 06:41:32;;;;;;;;;;;;;;;17.93;100.00;100348.97;2610974;36;20428;-59
2022/05/23 06:44:04;;;;;;;;;;;;;;;18.21;100.00;100343.53;2612865;36;19946;-63
2022/05/23 06:46:32;;;;;;;;;;;;;;;18.23;100.00;100335.16;2613371;36;19953;-62
2022/05/23 06:51:29;;;;;;;;;;;;;;;18.14;100.00;100331.75;2614912;36;20440;-58
2022/05/23 06:54:01;;;;;;;;;;;;;;;18.39;100.00;100315.78;2612706;36;19945;-59
2022/05/23 06:56:29;;;;;;;;;;;;;;;18.15;100.00;100323.41;2611968;36;20077;-64
2022/05/23 06:58:57;;;;;;;;;;;;;;;18.34;100.00;100320.97;2613975;36;20340;-62
2022/05/23 07:01:25;;;;;;;;;;;;;;;18.67;100.00;100318.44;2613383;36;19951;-59
2022/05/23 07:03:53;;;;;;;;;;;;;;;19.41;100.00;100313.22;2613491;31;20026;-58
2022/05/23 07:14:22;;;;;;;;;;;;;;;19.89;100.00;100296.69;2613179;36;20488;-58
2022/05/23 07:16:50;;;;;;;;;;;;;;;19.87;100.00;100297.94;2613593;36;19951;-62
2022/05/23 07:19:19;;;;;;;;;;;;;;;20.12;100.00;100300.84;2607067;36;20500;-59
2022/05/23 07:21:46;;;;;;;;;;;;;;;20.48;100.00;100289.41;2613629;31;20038;-59
2022/05/23 07:24:14;;;;;;;;;;;;;;;19.94;100.00;100294.16;2611387;31;20058;-58
2022/05/23 07:31:53;;;;;;;;;;;;;;;20.23;100.00;100283.81;2612929;54;19969;-59
2022/05/23 07:36:55;;;;;;;;;;;;;;;20.26;100.00;100280.66;2612495;36;20025;-62
2022/05/23 07:39:24;;;;;;;;;;;;;;;20.84;100.00;100273.50;2612867;31;19953;-65
2022/05/23 07:51:57;;;;;;;;;;;;;;;21.08;100.00;100254.66;2612671;39;20613;-58
2022/05/23 08:02:13;;;;;;;;;;;;;;;21.97;100.00;100238.97;2613862;36;19954;-59
2022/05/23 08:09:41;;;;;;;;;;;;;;;21.69;100.00;100220.31;2613101;54;19946;-67
2022/05/23 08:12:12;;;;;;;;;;;;;;;21.48;100.00;100221.50;2612291;36;19958;-61
2022/05/23 08:14:43;;;;;;;;;;;;;;;21.43;100.00;100210.38;2613671;54;19962;-62
2022/05/23 08:19:45;;;;;;;;;;;;;;;21.04;100.00;100220.56;2612914;54;19949;-61
2022/05/23 08:39:55;;;;;;;;;;;;;;;21.78;100.00;100193.47;2612897;36;19969;-61
2022/05/23 08:47:34;;;;;;;;;;;;;;;21.45;100.00;100200.03;2613052;54;19989;-63
2022/05/23 08:50:07;;;;;;;;;;;;;;;21.80;100.00;100194.88;2613430;36;19950;-59
2022/05/23 08:52:38;;;;;;;;;;;;;;;22.22;100.00;100191.50;2612942;36;19958;-64
2022/05/23 09:09:51;;;;;;;;;;;;;;;22.83;100.00;100166.84;2612634;39;20368;-58
2022/05/23 09:15:01;;;;;;;;;;;;;;;22.59;100.00;100160.47;2613796;54;20063;-64
2022/05/23 09:17:32;;;;;;;;;;;;;;;22.84;100.00;100163.03;2617527;36;20443;-62
2022/05/23 09:20:03;;;;;;;;;;;;;;;23.09;100.00;100165.59;2612880;36;20541;-58
2022/05/23 09:22:38;;;;;;;;;;;;;;;22.88;100.00;100164.25;2612376;36;19946;-58
2022/05/23 09:25:12;;;;;;;;;;;;;;;22.80;100.00;100148.13;2613516;54;20744;-68
2022/05/23 09:27:46;;;;;;;;;;;;;;;23.79;100.00;100148.34;2613036;36;20014;-58
2022/05/23 09:33:13;;;;;;;;;;;;;;;23.94;100.00;100136.88;2613765;36;19947;-70
2022/05/23 09:35:54;;;;;;;;;;;;;;;23.90;100.00;100121.94;2618455;36;19997;-59
2022/05/23 09:41:02;;;;;;;;;;;;;;;24.61;100.00;100109.84;2612706;54;19947;-63
2022/05/23 09:49:05;;;;;;;;;;;;;;;25.88;99.43;100090.88;2614074;36;19946;-64
2022/05/23 09:51:34;;;;;;;;;;;;;;;24.98;100.00;100093.72;2610808;36;20005;-59
2022/05/23 09:56:44;;;;;;;;;;;;;;;24.94;100.00;100073.28;2612145;31;20413;-64
2022/05/23 09:59:23;;;;;;;;;;;;;;;25.01;100.00;100075.84;2612782;36;20768;-60
2022/05/23 10:01:52;;;;;;;;;;;;;;;24.28;100.00;100071.00;2611745;36;20049;-58
2022/05/23 10:04:25;;;;;;;;;;;;;;;24.41;100.00;100075.38;2612378;36;19957;-61
2022/05/23 10:09:37;;;;;;;;;;;;;;;24.40;100.00;100059.94;2611756;31;19951;-60
2022/05/23 10:12:08;;;;;;;;;;;;;;;24.26;100.00;100069.56;2611934;36;19951;-61
2022/05/23 10:14:47;;;;;;;;;;;;;;;23.43;100.00;100073.34;2611920;36;20073;-61
2022/05/23 10:19:53;;;;;;;;;;;;;;;23.15;100.00;100065.03;2612325;36;19970;-60
2022/05/23 10:22:25;;;;;;;;;;;;;;;22.79;100.00;100062.25;2613372;36;20368;-59
2022/05/23 10:24:59;;;;;;;;;;;;;;;22.77;100.00;100052.56;2610165;36;20446;-64
2022/05/23 10:27:37;;;;;;;;;;;;;;;22.89;100.00;100050.66;2605175;36;20570;-59
2022/05/23 10:30:09;;;;;;;;;;;;;;;22.95;100.00;100057.94;2612508;31;19951;-59
2022/05/23 10:32:46;;;;;;;;;;;;;;;22.91;100.00;100048.53;2612543;36;20732;-58
2022/05/23 10:35:21;;;;;;;;;;;;;;;22.63;100.00;100039.06;2613240;54;19947;-58
2022/05/23 10:37:51;;;;;;;;;;;;;;;23.19;100.00;100022.28;2613250;36;19958;-59
2022/05/23 10:43:11;;;;;;;;;;;;;;;22.92;100.00;100045.56;2613892;36;19957;-64
2022/05/23 10:45:42;;;;;;;;;;;;;;;22.84;100.00;100034.09;2617681;36;20324;-60
2022/05/23 10:48:21;;;;;;;;;;;;;;;22.79;100.00;100037.56;2613049;36;20081;-59
2022/05/23 10:50:57;;;;;;;;;;;;;;;22.28;100.00;100023.34;2611920;54;19951;-65
2022/05/23 10:53:34;;;;;;;;;;;;;;;22.48;100.00;100005.78;2612195;36;19951;-58
2022/05/23 10:56:09;;;;;;;;;;;;;;;22.28;100.00;100017.88;2611242;36;20537;-57
2022/05/23 10:58:40;;;;;;;;;;;;;;;21.84;100.00;100018.06;2611853;36;20026;-65
2022/05/23 11:01:15;;;;;;;;;;;;;;;21.83;100.00;100026.50;2611571;36;19978;-62
2022/05/23 11:03:55;;;;;;;;;;;;;;;21.52;100.00;100015.53;2610598;36;20352;-62
2022/05/23 11:06:30;;;;;;;;;;;;;;;21.49;100.00;100023.31;2611396;36;19969;-59
2022/05/23 11:09:07;;;;;;;;;;;;;;;21.47;100.00;100023.53;2612213;36;20034;-62
2022/05/23 11:11:53;;;;;;;;;;;;;;;20.87;100.00;100007.75;2611264;36;19959;-54
2022/05/23 11:14:26;;;;;;;;;;;;;;;20.72;100.00;99993.63;2612145;36;20427;-62
2022/05/23 11:16:59;;;;;;;;;;;;;;;20.54;100.00;100003.41;2612703;36;19947;-55
2022/05/23 11:19:33;;;;;;;;;;;;;;;20.54;100.00;99988.88;2612601;31;19946;-56
2022/05/23 11:22:12;;;;;;;;;;;;;;;20.97;100.00;99978.00;2612394;36;20347;-56
2022/05/23 11:24:43;;;;;;;;;;;;;;;20.63;100.00;99991.13;2611002;36;19958;-62
2022/05/23 11:35:30;;;;;;;;;;;;;;;21.80;100.00;99977.66;2613117;36;19946;-52
2022/05/23 11:38:02;;;;;;;;;;;;;;;21.84;100.00;99971.50;2612772;36;20414;-59
2022/05/23 11:40:45;;;;;;;;;;;;;;;22.11;100.00;99967.53;2613336;36;20343;-60
2022/05/23 11:43:18;;;;;;;;;;;;;;;22.18;100.00;99963.59;2613679;36;19957;-56
2022/05/23 11:48:49;;;;;;;;;;;;;;;22.79;100.00;99936.06;2614390;36;20339;-64
2022/05/23 11:54:05;;;;;;;;;;;;;;;23.12;100.00;99929.09;2613927;39;20366;-64
2022/05/23 11:56:54;;;;;;;;;;;;;;;23.57;100.00;99931.13;2614045;31;19977;-57
2022/05/23 11:59:37;;;;;;;;;;;;;;;24.51;100.00;99922.59;2612192;31;19988;-63
2022/05/23 12:02:22;;;;;;;;;;;;;;;25.73;100.00;99914.28;2612541;36;19951;-58
2022/05/23 12:05:05;;;;;;;;;;;;;;;25.85;100.00;99895.69;2613501;36;20089;-58
2022/05/23 12:07:48;;;;;;;;;;;;;;;26.13;100.00;99903.94;2613824;36;20106;-62
2022/05/23 12:10:40;;;;;;;;;;;;;;;25.50;100.00;99894.22;2613683;36;19961;-64
2022/05/23 12:13:23;;;;;;;;;;;;;;;26.16;100.00;99886.84;2613198;36;20026;-66
2022/05/23 12:15:53;;;;;;;;;;;;;;;26.79;100.00;99873.22;2612319;36;20507;-59
2022/05/23 12:23:43;;;;;;;;;;;;;;;25.42;100.00;99858.84;2617965;36;19974;31
2022/05/23 12:26:27;;;;;;;;;;;;;;;25.27;100.00;99853.97;2612538;36;20070;-63
2022/05/23 12:28:58;;;;;;;;;;;;;;;24.95;100.00;99848.38;2614367;54;19954;-69
2022/05/23 12:31:29;;;;;;;;;;;;;;;24.54;100.00;99856.06;2613246;36;19977;-62
2022/05/23 12:34:12;;;;;;;;;;;;;;;24.62;100.00;99837.22;2613676;54;20281;-59
2022/05/23 12:36:42;;;;;;;;;;;;;;;24.68;100.00;99834.56;2615489;36;20072;-68
2022/05/23 12:39:36;;;;;;;;;;;;;;;25.34;100.00;99831.78;2612037;36;20021;-60
2022/05/23 12:42:13;;;;;;;;;;;;;;;26.14;100.00;99820.09;2614002;36;19962;-60
2022/05/23 12:50:10;;;;;;;;;;;;;;;27.01;100.00;99797.66;2614249;36;19981;-64
2022/05/23 12:52:51;;;;;;;;;;;;;;;27.38;91.16;99800.25;2614205;54;19938;-60
2022/05/23 12:55:29;;;;;;;;;;;;;;;27.17;92.16;99802.13;2612439;36;20026;-58
2022/05/23 13:00:48;;;;;;;;;;;;;;;25.56;97.05;99784.03;2616863;36;19946;-60
2022/05/23 13:03:26;;;;;;;;;;;;;;;25.91;100.00;99785.44;2616402;31;19963;-60
2022/05/23 13:06:04;;;;;;;;;;;;;;;25.12;100.00;99780.31;2614749;36;19947;-67
2022/05/23 13:08:37;;;;;;;;;;;;;;;24.70;93.68;99771.84;2611954;36;19958;-62
2022/05/23 13:11:08;;;;;;;;;;;;;;;24.90;100.00;99771.25;2610710;36;19954;-59
2022/05/23 13:13:38;;;;;;;;;;;;;;;25.31;100.00;99763.47;2613190;47;20113;-59
2022/05/23 13:29:32;;;;;;;;;;;;;;;23.51;100.00;99745.34;2607889;36;20447;-66
2022/05/23 13:32:01;;;;;;;;;;;;;;;23.38;100.00;99748.41;2613502;36;19954;-65
2022/05/23 13:34:36;;;;;;;;;;;;;;;23.20;100.00;99735.72;2614105;36;20038;-62
2022/05/23 13:42:18;;;;;;;;;;;;;;;22.68;100.00;99726.50;2612243;36;20034;-64
2022/05/23 13:44:46;;;;;;;;;;;;;;;22.55;100.00;99721.31;2612554;36;20800;-59
2022/05/23 13:49:48;;;;;;;;;;;;;;;22.68;100.00;99721.03;2611516;36;20466;-58
2022/05/23 13:54:51;;;;;;;;;;;;;;;22.32;100.00;99728.53;2612828;36;19956;-58
2022/05/23 14:02:38;;;;;;;;;;;;;;;21.85;100.00;99723.91;2613470;36;20454;-56
2022/05/23 14:05:10;;;;;;;;;;;;;;;21.79;100.00;99734.97;2617348;36;19979;-59
2022/05/23 14:07:39;;;;;;;;;;;;;;;21.61;100.00;99727.69;2612926;36;20030;-58
2022/05/23 14:10:10;;;;;;;;;;;;;;;21.78;100.00;99728.66;2612243;36;19989;-64
2022/05/23 14:55:18;;;;;;;;;;;;;;;19.89;100.00;99717.75;2611386;36;19950;-62
2022/05/23 14:55:43;;;;;;;;;;;;;;;20.01;100.00;99715.09;2611093;36;19950;-52
2022/05/23 15:00:59;;;;;;;;;;;;;;;19.88;100.00;99710.59;2613210;36;19985;-61
2022/05/23 15:03:28;;;;;;;;;;;;;;;19.85;100.00;99716.50;2612489;36;20037;-55
2022/05/23 15:05:57;;;;;;;;;;;;;;;19.66;100.00;99725.72;2612477;36;20433;-57
2022/05/23 15:08:28;;;;;;;;;;;;;;;19.76;100.00;99729.59;2611503;36;19981;-51
2022/05/23 15:13:42;;;;;;;;;;;;;;;19.79;100.00;99711.97;2612491;36;19953;-56
2022/05/23 15:16:17;;;;;;;;;;;;;;;19.63;100.00;99701.59;2611943;36;19947;-56
2022/05/23 15:18:45;;;;;;;;;;;;;;;19.57;100.00;99693.22;2613009;54;20130;-61
2022/05/23 15:21:15;;;;;;;;;;;;;;;19.50;100.00;99676.06;2611991;36;19951;-61
2022/05/23 15:23:46;;;;;;;;;;;;;;;19.31;100.00;99661.53;2611828;36;19947;-57
2022/05/23 15:26:18;;;;;;;;;;;;;;;19.03;100.00;99664.72;2629165;36;19947;-52
2022/05/23 15:33:40;;;;;;;;;;;;;;;18.79;100.00;99650.78;2613259;39;20736;-60
2022/05/23 15:36:08;;;;;;;;;;;;;;;18.97;100.00;99643.78;2613109;36;20443;-50
2022/05/23 15:38:36;;;;;;;;;;;;;;;18.81;100.00;99645.94;2613074;31;20102;-52
2022/05/23 15:41:10;;;;;;;;;;;;;;;18.71;100.00;99651.03;2611334;36;20046;-50
2022/05/23 15:43:38;;;;;;;;;;;;;;;18.82;100.00;99646.81;2611802;36;19973;-63
2022/05/23 15:46:09;;;;;;;;;;;;;;;18.81;100.00;99645.13;2613653;31;20470;-56
2022/05/23 15:48:37;;;;;;;;;;;;;;;18.74;100.00;99628.78;2612134;36;19962;-57
2022/05/23 15:51:06;;;;;;;;;;;;;;;18.55;100.00;99639.63;2612799;36;19981;-54
2022/05/23 15:53:37;;;;;;;;;;;;;;;18.52;100.00;99634.63;2612728;54;20090;-56
2022/05/23 15:56:11;;;;;;;;;;;;;;;18.63;100.00;99632.25;2613101;36;19977;-63
2022/05/23 15:58:39;;;;;;;;;;;;;;;18.77;100.00;99628.38;2612334;36;20042;-55
2022/05/23 16:01:11;;;;;;;;;;;;;;;18.68;100.00;99616.91;2611477;36;20349;-52
2022/05/23 16:03:39;;;;;;;;;;;;;;;18.54;100.00;99626.22;2611513;36;20077;-55
2022/05/23 16:06:07;;;;;;;;;;;;;;;18.24;100.00;99624.09;2611692;36;19954;-65
2022/05/23 16:08:35;;;;;;;;;;;;;;;18.36;100.00;99616.88;2613536;31;19950;-61
2022/05/23 16:11:06;;;;;;;;;;;;;;;17.97;100.00;99612.44;2612423;36;20082;-56
2022/05/23 16:13:40;;;;;;;;;;;;;;;17.96;100.00;99594.44;2612243;36;20082;-60
2022/05/23 16:16:11;;;;;;;;;;;;;;;18.02;100.00;99588.13;2612115;36;19946;-57
2022/05/23 16:26:05;;;;;;;;;;;;;;;18.11;100.00;99586.84;2612830;36;19969;-53
2022/05/23 16:43:32;;;;;;;;;;;;;;;17.93;100.00;99573.94;2612765;54;19965;-61
2022/05/23 16:46:03;;;;;;;;;;;;;;;17.72;100.00;99580.47;2613827;54;20001;-59
2022/05/23 16:48:32;;;;;;;;;;;;;;;17.78;100.00;99597.81;2611011;36;20081;-54
2022/05/23 16:56:15;;;;;;;;;;;;;;;17.67;100.00;99607.50;2612995;36;19959;-55
2022/05/23 17:01:17;;;;;;;;;;;;;;;17.41;100.00;99641.03;2616329;36;19950;-53
2022/05/23 17:03:45;;;;;;;;;;;;;;;17.38;100.00;99652.31;2611482;36;19951;-56
2022/05/23 17:11:26;;;;;;;;;;;;;;;16.72;100.00;99627.56;2613223;36;20548;-53
2022/05/23 17:35:07;;;;;;;;;;;;;;;16.98;100.00;99693.94;2612854;54;20448;-51
2022/05/23 17:45:29;;;;;;;;;;;;;;;16.89;100.00;99695.19;2612351;54;19973;-57
2022/05/23 17:52:51;;;;;;;;;;;;;;;16.93;100.00;99682.81;2611396;54;19994;-55
2022/05/23 17:55:20;;;;;;;;;;;;;;;16.72;100.00;99687.34;2613070;54;19973;-55
2022/05/23 17:58:06;;;;;;;;;;;;;;;16.58;100.00;99688.38;2614216;54;19961;-53
2022/05/23 18:00:37;;;;;;;;;;;;;;;16.37;100.00;99701.06;2614672;36;19969;-56
2022/05/23 18:05:43;;;;;;;;;;;;;;;16.23;100.00;99705.56;2613853;36;20608;-54
2022/05/23 18:08:15;;;;;;;;;;;;;;;16.22;100.00;99711.19;2616272;36;19968;-56
2022/05/23 18:10:44;;;;;;;;;;;;;;;15.95;100.00;99719.19;2613240;31;19951;-56
2022/05/23 18:13:13;;;;;;;;;;;;;;;15.93;100.00;99726.72;2613607;36;20005;-56
2022/05/23 18:21:06;;;;;;;;;;;;;;;15.51;100.00;99725.75;2614349;36;19977;-56
2022/05/23 18:26:04;;;;;;;;;;;;;;;15.45;100.00;99740.09;2614764;36;20376;-56
2022/05/23 18:28:33;;;;;;;;;;;;;;;15.49;100.00;99738.63;2614570;36;19968;-53
2022/05/23 18:31:02;;;;;;;;;;;;;;;15.52;100.00;99751.84;2613424;31;19954;-57
2022/05/23 18:36:18;;;;;;;;;;;;;;;;;;;;;
2022/05/23 18:38:47;;;;;;;;;;;;;;;15.28;100.00;99753.06;2616565;31;22233;-54
2022/05/23 18:41:24;;;;;;;;;;;;;;;15.30;100.00;99759.16;2615379;36;20725;-55
2022/05/23 18:44:02;;;;;;;;;;;;;;;15.14;100.00;99760.25;2636284;36;19950;-56
2022/05/23 18:46:51;;;;;;;;;;;;;;;15.12;100.00;99763.16;2637582;36;20038;-55
2022/05/23 18:52:02;;;;;;;;;;;;;;;15.11;100.00;99772.28;2615096;31;19952;-55
2022/05/23 18:54:34;;;;;;;;;;;;;;;15.07;100.00;99774.56;2621238;36;19981;-57
2022/05/23 18:57:06;;;;;;;;;;;;;;;14.95;100.00;99784.22;2615125;54;19974;-57
2022/05/23 19:15:13;;;;;;;;;;;;;;;14.75;100.00;99821.06;2613783;49;19947;-54
2022/05/23 19:22:54;;;;;;;;;;;;;;;14.85;100.00;99827.03;2617938;36;19954;-56
2022/05/23 19:25:23;;;;;;;;;;;;;;;14.85;100.00;99825.13;2611057;36;20402;-56
2022/05/23 19:27:54;;;;;;;;;;;;;;;14.95;100.00;99824.84;2612476;36;20067;-55
2022/05/23 19:32:56;;;;;;;;;;;;;;;14.78;100.00;99848.63;2614186;39;20367;-57
2022/05/23 19:35:25;;;;;;;;;;;;;;;14.74;100.00;99846.44;2613670;54;20026;-60
2022/05/23 19:37:55;;;;;;;;;;;;;;;14.66;100.00;99850.09;2613372;54;20023;-57
2022/05/23 19:43:05;;;;;;;;;;;;;;;14.63;100.00;99853.19;2615905;36;20071;-60
2022/05/23 19:48:20;;;;;;;;;;;;;;;14.62;100.00;99855.06;2617318;36;19957;-56
2022/05/23 19:50:48;;;;;;;;;;;;;;;14.55;100.00;99860.34;2612755;36;19975;-56
2022/05/23 19:55:49;;;;;;;;;;;;;;;14.70;100.00;99868.50;2613689;54;19958;-56
2022/05/23 20:08:48;;;;;;;;;;;;;;;14.74;100.00;99896.06;2614604;39;20375;-56
2022/05/23 20:45:07;;;;;;;;;;;;;;;14.10;100.00;99953.34;2613778;54;20496;-56
2022/05/23 20:53:03;;;;;;;;;;;;;;;14.01;100.00;99963.38;2614284;36;19939;-53
2022/05/23 21:19:12;;;;;;;;;;;;;;;14.01;100.00;99985.03;2614928;54;19953;-51
2022/05/23 21:21:41;;;;;;;;;;;;;;;14.01;100.00;99990.44;2612297;36;19986;-57
2022/05/23 21:24:12;;;;;;;;;;;;;;;13.92;100.00;99988.81;2614417;36;21795;-57
2022/05/23 21:26:40;;;;;;;;;;;;;;;13.92;100.00;99995.06;2611899;36;20512;-57
2022/05/23 21:29:08;;;;;;;;;;;;;;;13.95;100.00;99996.56;2613262;54;19962;-58